sensor_id;sensor_type;location;lat;lon;timestamp;pressure;altitude;pressure_sealevel;temperature
60966;BMP180;46834;51.100;6.886;2022-09-29T00:00:34;99575.00;;;14.00
60966;BMP180;46834;51.100;6.886;2022-09-29T00:03:00;99583.00;;;13.90
60966;BMP180;46834;51.100;6.886;2022-09-29T00:05:26;99576.00;;;13.90
60966;BMP180;46834;51.100;6.886;2022-09-29T00:07:52;99581.00;;;13.90
60966;BMP180;46834;51.100;6.886;2022-09-29T00:10:18;99578.00;;;13.90
60966;BMP180;46834;51.100;6.886;2022-09-29T00:12:45;99584.00;;;13.90
60966;BMP180;46834;51.100;6.886;2022-09-29T00:15:11;99574.00;;;13.90
60966;BMP180;46834;51.100;6.886;2022-09-29T00:17:36;99579.00;;;13.90
60966;BMP180;46834;51.100;6.886;2022-09-29T00:20:03;99569.00;;;13.80
60966;BMP180;46834;51.100;6.886;2022-09-29T00:22:29;99577.00;;;13.80
60966;BMP180;46834;51.100;6.886;2022-09-29T00:24:54;99574.00;;;13.80
60966;BMP180;46834;51.100;6.886;2022-09-29T00:27:20;99567.00;;;13.80
60966;BMP180;46834;51.100;6.886;2022-09-29T00:29:46;99571.00;;;13.80
60966;BMP180;46834;51.100;6.886;2022-09-29T00:32:12;99570.00;;;13.70
60966;BMP180;46834;51.100;6.886;2022-09-29T00:34:37;99571.00;;;13.70
60966;BMP180;46834;51.100;6.886;2022-09-29T00:37:03;99570.00;;;13.70
60966;BMP180;46834;51.100;6.886;2022-09-29T00:39:29;99572.00;;;13.70
60966;BMP180;46834;51.100;6.886;2022-09-29T00:41:55;99571.00;;;13.70
60966;BMP180;46834;51.100;6.886;2022-09-29T00:46:50;99572.00;;;13.60
60966;BMP180;46834;51.100;6.886;2022-09-29T00:49:26;99561.00;;;13.60
60966;BMP180;46834;51.100;6.886;2022-09-29T00:54:24;99578.00;;;13.60
60966;BMP180;46834;51.100;6.886;2022-09-29T00:56:55;99564.00;;;13.60
60966;BMP180;46834;51.100;6.886;2022-09-29T00:59:34;99573.00;;;13.50
60966;BMP180;46834;51.100;6.886;2022-09-29T01:02:02;99584.00;;;13.50
60966;BMP180;46834;51.100;6.886;2022-09-29T01:04:30;99577.00;;;13.50
60966;BMP180;46834;51.100;6.886;2022-09-29T01:06:57;99577.00;;;13.50
60966;BMP180;46834;51.100;6.886;2022-09-29T01:09:31;99579.00;;;13.40
60966;BMP180;46834;51.100;6.886;2022-09-29T01:12:00;99574.00;;;13.50
60966;BMP180;46834;51.100;6.886;2022-09-29T01:14:28;99575.00;;;13.40
60966;BMP180;46834;51.100;6.886;2022-09-29T01:16:55;99574.00;;;13.40
60966;BMP180;46834;51.100;6.886;2022-09-29T01:19:50;99560.00;;;13.40
60966;BMP180;46834;51.100;6.886;2022-09-29T01:25:35;99565.00;;;13.30
60966;BMP180;46834;51.100;6.886;2022-09-29T01:31:43;99576.00;;;13.20
60966;BMP180;46834;51.100;6.886;2022-09-29T01:34:44;99590.00;;;13.20
60966;BMP180;46834;51.100;6.886;2022-09-29T01:40:37;99587.00;;;13.10
60966;BMP180;46834;51.100;6.886;2022-09-29T01:43:10;99573.00;;;13.10
60966;BMP180;46834;51.100;6.886;2022-09-29T01:45:49;99583.00;;;13.10
60966;BMP180;46834;51.100;6.886;2022-09-29T01:48:25;99572.00;;;13.10
60966;BMP180;46834;51.100;6.886;2022-09-29T01:50:59;99585.00;;;13.10
60966;BMP180;46834;51.100;6.886;2022-09-29T01:53:36;99578.00;;;13.00
60966;BMP180;46834;51.100;6.886;2022-09-29T01:56:11;99583.00;;;13.00
60966;BMP180;46834;51.100;6.886;2022-09-29T01:59:07;99584.00;;;13.00
60966;BMP180;46834;51.100;6.886;2022-09-29T02:01:40;99587.00;;;13.00
60966;BMP180;46834;51.100;6.886;2022-09-29T02:04:22;99582.00;;;13.00
60966;BMP180;46834;51.100;6.886;2022-09-29T02:07:24;99571.00;;;12.90
60966;BMP180;46834;51.100;6.886;2022-09-29T02:10:02;99573.00;;;12.90
60966;BMP180;46834;51.100;6.886;2022-09-29T02:12:31;99583.00;;;12.90
60966;BMP180;46834;51.100;6.886;2022-09-29T02:15:01;99585.00;;;12.90
60966;BMP180;46834;51.100;6.886;2022-09-29T02:17:35;99586.00;;;12.90
60966;BMP180;46834;51.100;6.886;2022-09-29T02:20:02;99582.00;;;12.90
60966;BMP180;46834;51.100;6.886;2022-09-29T02:22:28;99591.00;;;12.90
60966;BMP180;46834;51.100;6.886;2022-09-29T02:24:57;99594.00;;;12.90
60966;BMP180;46834;51.100;6.886;2022-09-29T02:27:26;99589.00;;;12.90
60966;BMP180;46834;51.100;6.886;2022-09-29T02:29:55;99598.00;;;12.90
60966;BMP180;46834;51.100;6.886;2022-09-29T02:32:21;99600.00;;;12.90
60966;BMP180;46834;51.100;6.886;2022-09-29T02:34:51;99593.00;;;12.80
60966;BMP180;46834;51.100;6.886;2022-09-29T02:37:56;99592.00;;;12.80
60966;BMP180;46834;51.100;6.886;2022-09-29T02:40:55;99591.00;;;12.70
60966;BMP180;46834;51.100;6.886;2022-09-29T02:52:44;99589.00;;;12.70
60966;BMP180;46834;51.100;6.886;2022-09-29T02:55:19;99590.00;;;12.70
60966;BMP180;46834;51.100;6.886;2022-09-29T02:57:58;99588.00;;;12.70
60966;BMP180;46834;51.100;6.886;2022-09-29T03:00:29;99562.00;;;12.70
60966;BMP180;46834;51.100;6.886;2022-09-29T03:02:54;99595.00;;;12.70
60966;BMP180;46834;51.100;6.886;2022-09-29T03:05:22;99581.00;;;12.70
60966;BMP180;46834;51.100;6.886;2022-09-29T03:07:48;99588.00;;;12.70
60966;BMP180;46834;51.100;6.886;2022-09-29T03:10:16;99583.00;;;12.70
60966;BMP180;46834;51.100;6.886;2022-09-29T03:12:42;99591.00;;;12.60
60966;BMP180;46834;51.100;6.886;2022-09-29T03:15:09;99590.00;;;12.60
60966;BMP180;46834;51.100;6.886;2022-09-29T03:17:38;99582.00;;;12.60
60966;BMP180;46834;51.100;6.886;2022-09-29T03:20:04;99583.00;;;12.60
60966;BMP180;46834;51.100;6.886;2022-09-29T03:22:30;99597.00;;;12.60
60966;BMP180;46834;51.100;6.886;2022-09-29T03:24:56;99586.00;;;12.60
60966;BMP180;46834;51.100;6.886;2022-09-29T03:27:22;99587.00;;;12.60
60966;BMP180;46834;51.100;6.886;2022-09-29T03:29:47;99577.00;;;12.60
60966;BMP180;46834;51.100;6.886;2022-09-29T03:32:16;99585.00;;;12.50
60966;BMP180;46834;51.100;6.886;2022-09-29T03:34:42;99584.00;;;12.50
60966;BMP180;46834;51.100;6.886;2022-09-29T03:37:08;99594.00;;;12.50
60966;BMP180;46834;51.100;6.886;2022-09-29T03:39:33;99586.00;;;12.50
60966;BMP180;46834;51.100;6.886;2022-09-29T03:41:59;99586.00;;;12.50
60966;BMP180;46834;51.100;6.886;2022-09-29T03:44:25;99593.00;;;12.50
60966;BMP180;46834;51.100;6.886;2022-09-29T03:46:51;99585.00;;;12.50
60966;BMP180;46834;51.100;6.886;2022-09-29T03:49:19;99592.00;;;12.50
60966;BMP180;46834;51.100;6.886;2022-09-29T03:51:45;99591.00;;;12.50
60966;BMP180;46834;51.100;6.886;2022-09-29T03:54:11;99586.00;;;12.40
60966;BMP180;46834;51.100;6.886;2022-09-29T03:56:37;99583.00;;;12.40
60966;BMP180;46834;51.100;6.886;2022-09-29T03:59:06;99597.00;;;12.40
60966;BMP180;46834;51.100;6.886;2022-09-29T04:01:36;99598.00;;;12.40
60966;BMP180;46834;51.100;6.886;2022-09-29T04:04:03;99595.00;;;12.40
60966;BMP180;46834;51.100;6.886;2022-09-29T04:06:31;99601.00;;;12.40
60966;BMP180;46834;51.100;6.886;2022-09-29T04:08:56;99604.00;;;12.40
60966;BMP180;46834;51.100;6.886;2022-09-29T04:11:22;99614.00;;;12.40
60966;BMP180;46834;51.100;6.886;2022-09-29T04:13:47;99616.00;;;12.30
60966;BMP180;46834;51.100;6.886;2022-09-29T04:16:13;99614.00;;;12.30
60966;BMP180;46834;51.100;6.886;2022-09-29T04:18:39;99619.00;;;12.30
60966;BMP180;46834;51.100;6.886;2022-09-29T04:21:10;99614.00;;;12.30
60966;BMP180;46834;51.100;6.886;2022-09-29T04:23:36;99618.00;;;12.30
60966;BMP180;46834;51.100;6.886;2022-09-29T04:26:02;99614.00;;;12.30
60966;BMP180;46834;51.100;6.886;2022-09-29T04:28:30;99615.00;;;12.20
60966;BMP180;46834;51.100;6.886;2022-09-29T04:30:56;99619.00;;;12.20
60966;BMP180;46834;51.100;6.886;2022-09-29T04:33:22;99624.00;;;12.20
60966;BMP180;46834;51.100;6.886;2022-09-29T04:35:48;99618.00;;;12.20
60966;BMP180;46834;51.100;6.886;2022-09-29T04:38:14;99619.00;;;12.20
60966;BMP180;46834;51.100;6.886;2022-09-29T04:40:39;99629.00;;;12.20
60966;BMP180;46834;51.100;6.886;2022-09-29T04:43:05;99622.00;;;12.20
60966;BMP180;46834;51.100;6.886;2022-09-29T04:45:31;99628.00;;;12.10
60966;BMP180;46834;51.100;6.886;2022-09-29T04:47:57;99634.00;;;12.10
60966;BMP180;46834;51.100;6.886;2022-09-29T04:50:23;99627.00;;;12.10
60966;BMP180;46834;51.100;6.886;2022-09-29T04:52:49;99626.00;;;12.10
60966;BMP180;46834;51.100;6.886;2022-09-29T04:55:15;99629.00;;;12.10
60966;BMP180;46834;51.100;6.886;2022-09-29T04:57:42;99621.00;;;12.10
60966;BMP180;46834;51.100;6.886;2022-09-29T05:00:10;99628.00;;;12.10
60966;BMP180;46834;51.100;6.886;2022-09-29T05:02:36;99627.00;;;12.10
60966;BMP180;46834;51.100;6.886;2022-09-29T05:05:03;99635.00;;;12.00
60966;BMP180;46834;51.100;6.886;2022-09-29T05:07:36;99631.00;;;12.00
60966;BMP180;46834;51.100;6.886;2022-09-29T05:10:03;99619.00;;;12.00
60966;BMP180;46834;51.100;6.886;2022-09-29T05:12:29;99645.00;;;12.00
60966;BMP180;46834;51.100;6.886;2022-09-29T05:14:55;99641.00;;;12.00
60966;BMP180;46834;51.100;6.886;2022-09-29T05:17:21;99653.00;;;12.00
60966;BMP180;46834;51.100;6.886;2022-09-29T05:19:46;99645.00;;;12.00
60966;BMP180;46834;51.100;6.886;2022-09-29T05:22:12;99651.00;;;12.00
60966;BMP180;46834;51.100;6.886;2022-09-29T05:24:38;99657.00;;;12.00
60966;BMP180;46834;51.100;6.886;2022-09-29T05:27:03;99667.00;;;11.90
60966;BMP180;46834;51.100;6.886;2022-09-29T05:29:31;99655.00;;;11.90
60966;BMP180;46834;51.100;6.886;2022-09-29T05:31:57;99659.00;;;11.90
60966;BMP180;46834;51.100;6.886;2022-09-29T05:34:22;99661.00;;;11.90
60966;BMP180;46834;51.100;6.886;2022-09-29T05:36:48;99663.00;;;11.90
60966;BMP180;46834;51.100;6.886;2022-09-29T05:39:14;99666.00;;;11.90
60966;BMP180;46834;51.100;6.886;2022-09-29T05:41:40;99665.00;;;11.90
60966;BMP180;46834;51.100;6.886;2022-09-29T05:44:06;99667.00;;;11.90
60966;BMP180;46834;51.100;6.886;2022-09-29T05:46:32;99666.00;;;11.90
60966;BMP180;46834;51.100;6.886;2022-09-29T05:48:58;99675.00;;;11.90
60966;BMP180;46834;51.100;6.886;2022-09-29T05:51:24;99663.00;;;11.80
60966;BMP180;46834;51.100;6.886;2022-09-29T05:53:53;99670.00;;;11.80
60966;BMP180;46834;51.100;6.886;2022-09-29T05:56:23;99668.00;;;11.80
60966;BMP180;46834;51.100;6.886;2022-09-29T05:58:50;99677.00;;;11.80
60966;BMP180;46834;51.100;6.886;2022-09-29T06:01:22;99670.00;;;11.80
60966;BMP180;46834;51.100;6.886;2022-09-29T06:03:49;99675.00;;;11.80
60966;BMP180;46834;51.100;6.886;2022-09-29T06:06:20;99671.00;;;11.80
60966;BMP180;46834;51.100;6.886;2022-09-29T06:08:47;99682.00;;;11.80
60966;BMP180;46834;51.100;6.886;2022-09-29T06:11:23;99671.00;;;11.80
60966;BMP180;46834;51.100;6.886;2022-09-29T06:13:51;99683.00;;;11.80
60966;BMP180;46834;51.100;6.886;2022-09-29T06:16:21;99673.00;;;11.80
60966;BMP180;46834;51.100;6.886;2022-09-29T06:18:48;99682.00;;;11.80
60966;BMP180;46834;51.100;6.886;2022-09-29T06:21:18;99676.00;;;11.80
60966;BMP180;46834;51.100;6.886;2022-09-29T06:23:44;99687.00;;;11.80
60966;BMP180;46834;51.100;6.886;2022-09-29T06:26:13;99690.00;;;11.80
60966;BMP180;46834;51.100;6.886;2022-09-29T06:28:40;99687.00;;;11.80
60966;BMP180;46834;51.100;6.886;2022-09-29T06:31:18;99695.00;;;11.80
60966;BMP180;46834;51.100;6.886;2022-09-29T06:33:44;99694.00;;;11.90
60966;BMP180;46834;51.100;6.886;2022-09-29T06:36:18;99693.00;;;11.80
60966;BMP180;46834;51.100;6.886;2022-09-29T06:39:07;99706.00;;;11.90
60966;BMP180;46834;51.100;6.886;2022-09-29T06:41:34;99694.00;;;11.90
60966;BMP180;46834;51.100;6.886;2022-09-29T06:44:18;99707.00;;;11.90
60966;BMP180;46834;51.100;6.886;2022-09-29T06:46:54;99706.00;;;11.90
60966;BMP180;46834;51.100;6.886;2022-09-29T06:49:25;99715.00;;;11.90
60966;BMP180;46834;51.100;6.886;2022-09-29T06:51:57;99712.00;;;11.90
60966;BMP180;46834;51.100;6.886;2022-09-29T06:54:29;99710.00;;;11.90
60966;BMP180;46834;51.100;6.886;2022-09-29T06:57:00;99704.00;;;12.00
60966;BMP180;46834;51.100;6.886;2022-09-29T06:59:26;99708.00;;;12.00
60966;BMP180;46834;51.100;6.886;2022-09-29T07:01:52;99703.00;;;12.00
60966;BMP180;46834;51.100;6.886;2022-09-29T07:04:19;99706.00;;;12.00
60966;BMP180;46834;51.100;6.886;2022-09-29T07:06:46;99714.00;;;12.10
60966;BMP180;46834;51.100;6.886;2022-09-29T07:09:12;99712.00;;;12.10
60966;BMP180;46834;51.100;6.886;2022-09-29T07:11:42;99718.00;;;12.10
60966;BMP180;46834;51.100;6.886;2022-09-29T07:14:13;99712.00;;;12.10
60966;BMP180;46834;51.100;6.886;2022-09-29T07:16:39;99715.00;;;12.50
60966;BMP180;46834;51.100;6.886;2022-09-29T07:19:05;99714.00;;;12.40
60966;BMP180;46834;51.100;6.886;2022-09-29T07:21:30;99711.00;;;12.40
60966;BMP180;46834;51.100;6.886;2022-09-29T07:23:56;99715.00;;;12.40
60966;BMP180;46834;51.100;6.886;2022-09-29T07:26:22;99723.00;;;12.30
60966;BMP180;46834;51.100;6.886;2022-09-29T07:28:48;99722.00;;;12.70
60966;BMP180;46834;51.100;6.886;2022-09-29T07:31:18;99716.00;;;12.60
60966;BMP180;46834;51.100;6.886;2022-09-29T07:33:46;99727.00;;;12.50
60966;BMP180;46834;51.100;6.886;2022-09-29T07:36:15;99733.00;;;12.50
60966;BMP180;46834;51.100;6.886;2022-09-29T07:38:46;99736.00;;;12.50
60966;BMP180;46834;51.100;6.886;2022-09-29T07:41:12;99729.00;;;12.50
60966;BMP180;46834;51.100;6.886;2022-09-29T07:43:39;99745.00;;;12.50
60966;BMP180;46834;51.100;6.886;2022-09-29T07:46:06;99742.00;;;12.50
60966;BMP180;46834;51.100;6.886;2022-09-29T07:48:34;99738.00;;;12.50
60966;BMP180;46834;51.100;6.886;2022-09-29T07:51:01;99745.00;;;12.50
60966;BMP180;46834;51.100;6.886;2022-09-29T07:53:29;99752.00;;;12.50
60966;BMP180;46834;51.100;6.886;2022-09-29T07:55:55;99744.00;;;12.50
60966;BMP180;46834;51.100;6.886;2022-09-29T07:58:21;99746.00;;;12.60
60966;BMP180;46834;51.100;6.886;2022-09-29T08:00:55;99733.00;;;12.50
60966;BMP180;46834;51.100;6.886;2022-09-29T08:03:21;99751.00;;;12.60
60966;BMP180;46834;51.100;6.886;2022-09-29T08:05:47;99734.00;;;12.60
60966;BMP180;46834;51.100;6.886;2022-09-29T08:08:13;99754.00;;;12.60
60966;BMP180;46834;51.100;6.886;2022-09-29T08:10:39;99747.00;;;12.70
60966;BMP180;46834;51.100;6.886;2022-09-29T08:13:04;99749.00;;;12.70
60966;BMP180;46834;51.100;6.886;2022-09-29T08:15:30;99757.00;;;12.70
60966;BMP180;46834;51.100;6.886;2022-09-29T08:17:56;99765.00;;;12.80
60966;BMP180;46834;51.100;6.886;2022-09-29T08:20:22;99764.00;;;12.80
60966;BMP180;46834;51.100;6.886;2022-09-29T08:22:48;99758.00;;;12.80
60966;BMP180;46834;51.100;6.886;2022-09-29T08:25:15;99766.00;;;12.90
60966;BMP180;46834;51.100;6.886;2022-09-29T08:27:42;99767.00;;;12.90
60966;BMP180;46834;51.100;6.886;2022-09-29T08:30:10;99766.00;;;12.90
60966;BMP180;46834;51.100;6.886;2022-09-29T08:32:36;99776.00;;;13.00
60966;BMP180;46834;51.100;6.886;2022-09-29T08:35:03;99769.00;;;13.00
60966;BMP180;46834;51.100;6.886;2022-09-29T08:37:29;99782.00;;;13.00
60966;BMP180;46834;51.100;6.886;2022-09-29T08:39:55;99782.00;;;13.10
60966;BMP180;46834;51.100;6.886;2022-09-29T08:45:01;99802.00;;;13.20
60966;BMP180;46834;51.100;6.886;2022-09-29T08:47:40;99792.00;;;13.20
60966;BMP180;46834;51.100;6.886;2022-09-29T08:50:35;99788.00;;;13.30
60966;BMP180;46834;51.100;6.886;2022-09-29T08:53:10;99801.00;;;13.70
60966;BMP180;46834;51.100;6.886;2022-09-29T08:56:04;99798.00;;;13.60
60966;BMP180;46834;51.100;6.886;2022-09-29T08:58:32;99786.00;;;13.60
60966;BMP180;46834;51.100;6.886;2022-09-29T09:12:54;99796.00;;;13.60
60966;BMP180;46834;51.100;6.886;2022-09-29T09:18:36;99810.00;;;13.70
60966;BMP180;46834;51.100;6.886;2022-09-29T09:21:18;99809.00;;;13.70
60966;BMP180;46834;51.100;6.886;2022-09-29T09:24:02;99809.00;;;13.80
60966;BMP180;46834;51.100;6.886;2022-09-29T09:26:45;99800.00;;;13.80
60966;BMP180;46834;51.100;6.886;2022-09-29T09:29:36;99812.00;;;13.90
60966;BMP180;46834;51.100;6.886;2022-09-29T09:32:19;99806.00;;;13.90
60966;BMP180;46834;51.100;6.886;2022-09-29T09:37:42;99808.00;;;14.10
60966;BMP180;46834;51.100;6.886;2022-09-29T09:43:03;99817.00;;;14.10
60966;BMP180;46834;51.100;6.886;2022-09-29T09:45:45;99823.00;;;14.20
60966;BMP180;46834;51.100;6.886;2022-09-29T09:48:29;99813.00;;;14.20
60966;BMP180;46834;51.100;6.886;2022-09-29T09:51:01;99824.00;;;14.30
60966;BMP180;46834;51.100;6.886;2022-09-29T09:53:39;99824.00;;;14.30
60966;BMP180;46834;51.100;6.886;2022-09-29T09:56:36;99824.00;;;14.30
60966;BMP180;46834;51.100;6.886;2022-09-29T10:01:40;99825.00;;;14.50
60966;BMP180;46834;51.100;6.886;2022-09-29T10:04:10;99826.00;;;14.50
60966;BMP180;46834;51.100;6.886;2022-09-29T10:06:36;99825.00;;;14.60
60966;BMP180;46834;51.100;6.886;2022-09-29T10:09:02;99818.00;;;14.70
60966;BMP180;46834;51.100;6.886;2022-09-29T10:11:30;99824.00;;;14.70
60966;BMP180;46834;51.100;6.886;2022-09-29T10:14:23;99825.00;;;14.70
60966;BMP180;46834;51.100;6.886;2022-09-29T10:17:05;99824.00;;;14.80
60966;BMP180;46834;51.100;6.886;2022-09-29T10:19:59;99829.00;;;14.80
60966;BMP180;46834;51.100;6.886;2022-09-29T10:22:27;99825.00;;;14.90
60966;BMP180;46834;51.100;6.886;2022-09-29T10:25:14;99826.00;;;14.90
60966;BMP180;46834;51.100;6.886;2022-09-29T10:27:46;99826.00;;;15.00
60966;BMP180;46834;51.100;6.886;2022-09-29T10:30:32;99834.00;;;15.10
60966;BMP180;46834;51.100;6.886;2022-09-29T10:33:02;99839.00;;;15.10
60966;BMP180;46834;51.100;6.886;2022-09-29T10:35:38;99828.00;;;15.20
60966;BMP180;46834;51.100;6.886;2022-09-29T10:38:23;99834.00;;;15.20
60966;BMP180;46834;51.100;6.886;2022-09-29T10:41:04;99836.00;;;15.30
60966;BMP180;46834;51.100;6.886;2022-09-29T10:43:42;99833.00;;;15.30
60966;BMP180;46834;51.100;6.886;2022-09-29T10:46:36;99844.00;;;15.40
60966;BMP180;46834;51.100;6.886;2022-09-29T10:51:50;99840.00;;;15.50
60966;BMP180;46834;51.100;6.886;2022-09-29T10:54:17;99842.00;;;15.60
60966;BMP180;46834;51.100;6.886;2022-09-29T10:56:47;99848.00;;;15.60
60966;BMP180;46834;51.100;6.886;2022-09-29T10:59:16;99835.00;;;15.70
60966;BMP180;46834;51.100;6.886;2022-09-29T11:01:49;99853.00;;;15.70
60966;BMP180;46834;51.100;6.886;2022-09-29T11:04:32;99848.00;;;15.80
60966;BMP180;46834;51.100;6.886;2022-09-29T11:07:11;99847.00;;;15.90
60966;BMP180;46834;51.100;6.886;2022-09-29T11:09:43;99846.00;;;15.90
60966;BMP180;46834;51.100;6.886;2022-09-29T11:12:35;99852.00;;;15.90
60966;BMP180;46834;51.100;6.886;2022-09-29T11:15:27;99847.00;;;16.00
60966;BMP180;46834;51.100;6.886;2022-09-29T11:17:55;99846.00;;;16.10
60966;BMP180;46834;51.100;6.886;2022-09-29T11:20:26;99845.00;;;16.20
60966;BMP180;46834;51.100;6.886;2022-09-29T11:23:12;99860.00;;;16.20
60966;BMP180;46834;51.100;6.886;2022-09-29T11:29:00;99859.00;;;16.30
60966;BMP180;46834;51.100;6.886;2022-09-29T11:34:40;99865.00;;;16.50
60966;BMP180;46834;51.100;6.886;2022-09-29T11:41:05;99854.00;;;16.60
60966;BMP180;46834;51.100;6.886;2022-09-29T11:43:55;99863.00;;;16.60
60966;BMP180;46834;51.100;6.886;2022-09-29T11:46:53;99860.00;;;16.70
60966;BMP180;46834;51.100;6.886;2022-09-29T11:58:39;99863.00;;;16.90
60966;BMP180;46834;51.100;6.886;2022-09-29T12:06:59;99860.00;;;16.90
60966;BMP180;46834;51.100;6.886;2022-09-29T12:10:00;99871.00;;;16.90
60966;BMP180;46834;51.100;6.886;2022-09-29T12:15:49;99874.00;;;16.90
60966;BMP180;46834;51.100;6.886;2022-09-29T12:18:34;99875.00;;;16.90
60966;BMP180;46834;51.100;6.886;2022-09-29T12:21:02;99870.00;;;16.90
60966;BMP180;46834;51.100;6.886;2022-09-29T12:23:33;99870.00;;;16.90
60966;BMP180;46834;51.100;6.886;2022-09-29T12:26:12;99863.00;;;16.90
60966;BMP180;46834;51.100;6.886;2022-09-29T12:29:11;99858.00;;;16.90
60966;BMP180;46834;51.100;6.886;2022-09-29T12:31:46;99865.00;;;16.90
60966;BMP180;46834;51.100;6.886;2022-09-29T12:34:37;99873.00;;;16.80
60966;BMP180;46834;51.100;6.886;2022-09-29T12:37:14;99866.00;;;16.80
60966;BMP180;46834;51.100;6.886;2022-09-29T12:39:59;99870.00;;;16.80
60966;BMP180;46834;51.100;6.886;2022-09-29T12:43:00;99859.00;;;16.80
60966;BMP180;46834;51.100;6.886;2022-09-29T12:45:40;99870.00;;;16.80
60966;BMP180;46834;51.100;6.886;2022-09-29T12:48:37;99867.00;;;16.90
60966;BMP180;46834;51.100;6.886;2022-09-29T12:51:34;99858.00;;;16.90
60966;BMP180;46834;51.100;6.886;2022-09-29T12:54:29;99868.00;;;16.90
60966;BMP180;46834;51.100;6.886;2022-09-29T12:57:09;99870.00;;;16.90
60966;BMP180;46834;51.100;6.886;2022-09-29T12:59:39;99868.00;;;17.00
60966;BMP180;46834;51.100;6.886;2022-09-29T13:05:22;99865.00;;;17.00
60966;BMP180;46834;51.100;6.886;2022-09-29T13:08:27;99870.00;;;17.10
60966;BMP180;46834;51.100;6.886;2022-09-29T13:11:45;99873.00;;;17.10
60966;BMP180;46834;51.100;6.886;2022-09-29T13:14:42;99855.00;;;17.10
60966;BMP180;46834;51.100;6.886;2022-09-29T13:20:35;99872.00;;;17.20
60966;BMP180;46834;51.100;6.886;2022-09-29T13:29:25;99870.00;;;17.30
60966;BMP180;46834;51.100;6.886;2022-09-29T13:31:54;99863.00;;;17.40
60966;BMP180;46834;51.100;6.886;2022-09-29T13:34:32;99878.00;;;17.40
60966;BMP180;46834;51.100;6.886;2022-09-29T13:37:14;99882.00;;;17.40
60966;BMP180;46834;51.100;6.886;2022-09-29T13:39:55;99874.00;;;17.50
60966;BMP180;46834;51.100;6.886;2022-09-29T13:47:59;99886.00;;;17.60
60966;BMP180;46834;51.100;6.886;2022-09-29T13:50:49;99883.00;;;17.60
60966;BMP180;46834;51.100;6.886;2022-09-29T13:56:08;99883.00;;;17.60
60966;BMP180;46834;51.100;6.886;2022-09-29T13:58:59;99894.00;;;17.60
60966;BMP180;46834;51.100;6.886;2022-09-29T14:01:35;99883.00;;;17.60
60966;BMP180;46834;51.100;6.886;2022-09-29T14:04:50;99890.00;;;17.60
60966;BMP180;46834;51.100;6.886;2022-09-29T14:07:42;99890.00;;;17.60
60966;BMP180;46834;51.100;6.886;2022-09-29T14:13:25;99897.00;;;17.60
60966;BMP180;46834;51.100;6.886;2022-09-29T14:19:00;99906.00;;;17.60
60966;BMP180;46834;51.100;6.886;2022-09-29T14:21:51;99908.00;;;17.60
60966;BMP180;46834;51.100;6.886;2022-09-29T14:27:34;99910.00;;;17.60
60966;BMP180;46834;51.100;6.886;2022-09-29T14:33:08;99899.00;;;17.60
60966;BMP180;46834;51.100;6.886;2022-09-29T14:35:42;99904.00;;;17.70
60966;BMP180;46834;51.100;6.886;2022-09-29T14:38:26;99909.00;;;17.70
60966;BMP180;46834;51.100;6.886;2022-09-29T14:52:54;99923.00;;;17.70
60966;BMP180;46834;51.100;6.886;2022-09-29T14:55:38;99932.00;;;17.70
60966;BMP180;46834;51.100;6.886;2022-09-29T15:01:53;99930.00;;;17.60
60966;BMP180;46834;51.100;6.886;2022-09-29T15:04:21;99939.00;;;17.70
60966;BMP180;46834;51.100;6.886;2022-09-29T15:06:51;99941.00;;;17.70
60966;BMP180;46834;51.100;6.886;2022-09-29T15:09:19;99940.00;;;17.70
60966;BMP180;46834;51.100;6.886;2022-09-29T15:14:27;99938.00;;;17.70
60966;BMP180;46834;51.100;6.886;2022-09-29T15:26:04;99940.00;;;17.70
60966;BMP180;46834;51.100;6.886;2022-09-29T15:28:36;99948.00;;;17.60
60966;BMP180;46834;51.100;6.886;2022-09-29T15:31:14;99941.00;;;17.60
60966;BMP180;46834;51.100;6.886;2022-09-29T15:33:43;99946.00;;;17.70
60966;BMP180;46834;51.100;6.886;2022-09-29T15:36:23;99943.00;;;17.60
60966;BMP180;46834;51.100;6.886;2022-09-29T15:39:06;99938.00;;;17.60
60966;BMP180;46834;51.100;6.886;2022-09-29T15:41:34;99943.00;;;17.70
60966;BMP180;46834;51.100;6.886;2022-09-29T15:44:11;99939.00;;;17.60
60966;BMP180;46834;51.100;6.886;2022-09-29T15:46:45;99949.00;;;17.60
60966;BMP180;46834;51.100;6.886;2022-09-29T15:49:15;99951.00;;;17.60
60966;BMP180;46834;51.100;6.886;2022-09-29T15:51:53;99953.00;;;17.60
60966;BMP180;46834;51.100;6.886;2022-09-29T15:54:20;99957.00;;;17.60
60966;BMP180;46834;51.100;6.886;2022-09-29T15:56:47;99962.00;;;17.60
60966;BMP180;46834;51.100;6.886;2022-09-29T16:00:04;99967.00;;;17.50
60966;BMP180;46834;51.100;6.886;2022-09-29T16:02:41;99966.00;;;17.50
60966;BMP180;46834;51.100;6.886;2022-09-29T16:05:18;99970.00;;;17.50
60966;BMP180;46834;51.100;6.886;2022-09-29T16:08:11;99967.00;;;17.50
60966;BMP180;46834;51.100;6.886;2022-09-29T16:10:53;99967.00;;;17.50
60966;BMP180;46834;51.100;6.886;2022-09-29T16:13:33;99977.00;;;17.50
60966;BMP180;46834;51.100;6.886;2022-09-29T16:16:10;99984.00;;;17.50
60966;BMP180;46834;51.100;6.886;2022-09-29T16:18:49;99986.00;;;17.50
60966;BMP180;46834;51.100;6.886;2022-09-29T16:21:22;99984.00;;;17.50
60966;BMP180;46834;51.100;6.886;2022-09-29T16:24:01;99986.00;;;17.50
60966;BMP180;46834;51.100;6.886;2022-09-29T16:31:40;100001.00;;;17.50
60966;BMP180;46834;51.100;6.886;2022-09-29T16:39:40;100015.00;;;17.40
60966;BMP180;46834;51.100;6.886;2022-09-29T16:42:24;100021.00;;;17.40
60966;BMP180;46834;51.100;6.886;2022-09-29T16:44:51;100016.00;;;17.40
60966;BMP180;46834;51.100;6.886;2022-09-29T16:47:22;100023.00;;;17.40
60966;BMP180;46834;51.100;6.886;2022-09-29T16:49:56;100019.00;;;17.40
60966;BMP180;46834;51.100;6.886;2022-09-29T16:52:28;100014.00;;;17.40
60966;BMP180;46834;51.100;6.886;2022-09-29T16:58:12;100029.00;;;17.30
60966;BMP180;46834;51.100;6.886;2022-09-29T17:00:38;100042.00;;;17.40
60966;BMP180;46834;51.100;6.886;2022-09-29T17:03:05;100035.00;;;17.40
60966;BMP180;46834;51.100;6.886;2022-09-29T17:05:40;100044.00;;;17.30
60966;BMP180;46834;51.100;6.886;2022-09-29T17:08:22;100038.00;;;17.30
60966;BMP180;46834;51.100;6.886;2022-09-29T17:10:55;100042.00;;;17.20
60966;BMP180;46834;51.100;6.886;2022-09-29T17:13:22;100050.00;;;17.20
60966;BMP180;46834;51.100;6.886;2022-09-29T17:15:51;100044.00;;;17.20
60966;BMP180;46834;51.100;6.886;2022-09-29T17:18:19;100040.00;;;17.20